Time;durP1;ratioP1;P1;durP2;ratioP2;P2;SDS_P1;SDS_P2;PMS_P1;PMS_P2;Temp;Humidity;BMP_temperature;BMP_pressure;BME280_temperature;BME280_humidity;BME280_pressure;Samples;Min_cycle;Max_cycle;Signal;HPM_P1;HPM_P2
2022/05/15 00:02:21;;;;;;;7.95;6.75;;;;;;;187.31;100.00;61586.06;5091628;28;20314;-82
2022/05/15 00:04:46;;;;;;;10.07;7.60;;;;;;;-144.47;100.00;61586.06;5090847;28;20039;-83
2022/05/15 00:07:12;;;;;;;10.00;6.88;;;;;;;18.73;100.00;61586.06;5091933;28;20024;-83
2022/05/15 00:09:38;;;;;;;14.38;7.65;;;;;;;19.97;100.00;61586.06;5091629;28;20490;-82
2022/05/15 00:12:05;;;;;;;10.65;6.53;;;;;;;18.61;100.00;61586.06;5091962;28;20726;-83
2022/05/15 00:14:32;;;;;;;10.82;7.28;;;;;;;18.45;100.00;61586.06;5090861;28;20118;-81
2022/05/15 00:16:57;;;;;;;11.60;7.00;;;;;;;-144.47;100.00;61586.06;5088947;28;20401;-81
2022/05/15 00:19:23;;;;;;;14.23;7.53;;;;;;;18.25;100.00;61586.06;5096610;28;20111;-82
2022/05/15 00:21:49;;;;;;;10.60;6.78;;;;;;;-144.47;100.00;61586.06;5098145;28;20104;-83
2022/05/15 00:24:15;;;;;;;13.35;7.60;;;;;;;-144.47;100.00;61586.06;5098815;28;20093;-81
2022/05/15 00:26:41;;;;;;;12.63;6.95;;;;;;;-144.47;100.00;61586.06;5098403;28;20040;-82
2022/05/15 00:29:07;;;;;;;13.40;6.93;;;;;;;-144.47;100.00;61586.06;5093475;28;20093;-82
2022/05/15 00:31:33;;;;;;;13.65;7.80;;;;;;;-144.47;100.00;61586.06;5095272;28;20035;-81
2022/05/15 00:33:59;;;;;;;11.05;7.28;;;;;;;-144.47;100.00;61586.06;5091743;28;20389;-82
2022/05/15 00:36:24;;;;;;;11.82;7.15;;;;;;;18.67;100.00;61586.06;5092712;28;20081;-82
2022/05/15 00:38:51;;;;;;;11.38;7.85;;;;;;;-144.47;100.00;61586.06;5091888;28;20357;-81
2022/05/15 00:41:17;;;;;;;12.40;7.13;;;;;;;-144.47;100.00;61586.06;5090644;28;20039;-82
2022/05/15 00:43:45;;;;;;;9.82;7.18;;;;;;;-144.47;100.00;61586.06;5091903;28;20051;-82
2022/05/15 00:46:28;;;;;;;9.13;6.72;;;;;;;-144.47;100.00;61586.06;5091379;28;20024;-82
2022/05/15 00:48:54;;;;;;;10.07;6.88;;;;;;;-144.47;100.00;61586.06;5090766;28;20032;-82
2022/05/15 00:51:26;;;;;;;12.02;7.43;;;;;;;-144.47;100.00;61586.06;5091270;28;20070;-83
2022/05/15 00:53:57;;;;;;;10.15;6.28;;;;;;;-144.47;100.00;61586.06;5095617;28;20035;-82
2022/05/15 00:56:26;;;;;;;16.33;8.93;;;;;;;-144.47;100.00;61586.06;5077004;28;20032;-82
2022/05/15 00:59:00;;;;;;;10.55;6.93;;;;;;;-144.47;100.00;61586.06;5070371;28;20110;-82
2022/05/15 01:01:26;;;;;;;8.73;6.95;;;;;;;-144.47;100.00;61586.06;5087626;28;20036;-82
2022/05/15 01:03:51;;;;;;;15.30;7.80;;;;;;;-144.47;100.00;61586.06;5087835;28;20123;-82
2022/05/15 01:06:17;;;;;;;8.40;7.03;;;;;;;17.95;100.00;61586.06;5092463;28;20396;-82
2022/05/15 01:08:44;;;;;;;12.05;7.25;;;;;;;-144.47;100.00;61586.06;5091735;28;20055;-82
2022/05/15 01:11:17;;;;;;;10.57;7.25;;;;;;;-144.47;100.00;61586.06;5092215;28;20032;-81
2022/05/15 01:13:44;;;;;;;11.43;7.50;;;;;;;-144.47;100.00;61586.06;5096064;28;20043;-81
2022/05/15 01:16:12;;;;;;;10.90;6.93;;;;;;;-144.47;100.00;61586.06;5091642;28;20043;-82
2022/05/15 01:18:39;;;;;;;13.48;7.28;;;;;;;-144.47;100.00;61586.06;5089008;28;20050;-82
2022/05/15 01:21:51;;;;;;;10.82;7.18;;;;;;;-144.47;100.00;61586.06;5090039;28;20027;-82
2022/05/15 01:24:18;;;;;;;9.95;7.45;;;;;;;-144.47;100.00;61586.06;5035801;28;20459;-82
2022/05/15 01:26:45;;;;;;;12.65;7.78;;;;;;;-144.47;100.00;61586.06;5052034;28;20048;-81
2022/05/15 01:29:15;;;;;;;10.90;7.45;;;;;;;-144.47;100.00;61586.06;5051746;28;20028;-82
2022/05/15 01:31:41;;;;;;;13.68;7.88;;;;;;;-144.47;100.00;61586.06;5068164;28;20047;-82
2022/05/15 01:34:08;;;;;;;13.23;6.95;;;;;;;-144.47;100.00;61586.06;5051483;28;20052;-81
2022/05/15 01:36:35;;;;;;;9.50;6.70;;;;;;;-144.47;100.00;61586.06;5051081;28;20048;-82
2022/05/15 01:39:02;;;;;;;13.98;7.03;;;;;;;-144.47;100.00;61586.06;5051463;28;20510;-82
2022/05/15 01:41:28;;;;;;;9.98;6.88;;;;;;;-144.47;100.00;61586.06;5068611;28;20115;-82
2022/05/15 01:43:54;;;;;;;11.43;7.45;;;;;;;-144.47;100.00;61586.06;5051118;28;20171;-82
2022/05/15 01:46:26;;;;;;;14.20;7.22;;;;;;;-144.47;100.00;61586.06;5051618;28;20838;-82
2022/05/15 01:48:53;;;;;;;12.50;7.35;;;;;;;-144.47;100.00;61586.06;5067430;28;20040;-82
2022/05/15 01:51:20;;;;;;;14.38;7.95;;;;;;;-144.47;100.00;61586.06;5051205;28;20037;-82
2022/05/15 01:53:45;;;;;;;13.30;7.43;;;;;;;-144.47;100.00;61586.06;5067835;28;20056;-81
2022/05/15 01:56:12;;;;;;;10.38;7.97;;;;;;;-144.47;100.00;61586.06;5051455;28;20037;-82
2022/05/15 01:58:38;;;;;;;11.27;7.47;;;;;;;-144.47;100.00;61586.06;5084313;28;20040;-82
2022/05/15 02:01:04;;;;;;;8.52;7.20;;;;;;;-144.47;100.00;61586.06;5089182;28;20118;-82
2022/05/15 02:03:30;;;;;;;11.88;7.15;;;;;;;-144.47;100.00;61586.06;5088946;28;20039;-82
2022/05/15 02:05:56;;;;;;;12.20;7.03;;;;;;;-144.47;100.00;61586.06;5088964;28;20047;-82
2022/05/15 02:08:21;;;;;;;12.50;7.78;;;;;;;-144.47;100.00;61586.06;5090430;28;20097;-82
2022/05/15 02:10:47;;;;;;;12.20;7.90;;;;;;;17.30;100.00;104042.75;5088960;28;20077;-82
2022/05/15 02:13:13;;;;;;;9.15;7.82;;;;;;;-144.47;100.00;61586.06;5089255;28;20210;-82
2022/05/15 02:15:39;;;;;;;11.55;8.02;;;;;;;-144.47;100.00;61586.06;5089079;28;20111;-82
2022/05/15 02:18:04;;;;;;;11.82;7.25;;;;;;;-144.47;100.00;61586.06;5090348;28;20395;-82
2022/05/15 02:20:31;;;;;;;9.82;8.15;;;;;;;-144.47;100.00;61586.06;5090454;28;20032;-82
2022/05/15 02:22:57;;;;;;;10.90;7.97;;;;;;;-144.47;100.00;61586.06;5086306;28;20032;-82
2022/05/15 02:25:22;;;;;;;12.63;7.63;;;;;;;-144.47;100.00;61586.06;5093132;28;20038;-81
2022/05/15 02:27:48;;;;;;;12.48;8.00;;;;;;;-144.47;100.00;61586.06;5092747;28;20043;-83
2022/05/15 02:30:15;;;;;;;13.25;8.50;;;;;;;-144.47;100.00;61586.06;5093235;28;20025;-82
2022/05/15 02:32:41;;;;;;;9.10;7.63;;;;;;;-144.47;100.00;61586.06;5092406;28;20027;-82
2022/05/15 02:35:07;;;;;;;10.57;7.95;;;;;;;21.26;100.00;61586.06;5094345;28;20081;-82
2022/05/15 02:37:33;;;;;;;12.45;8.40;;;;;;;-144.47;100.00;61586.06;5092567;28;20038;-83
2022/05/15 02:39:59;;;;;;;14.98;8.55;;;;;;;-144.47;100.00;61586.06;5093129;28;20020;-83
2022/05/15 02:42:24;;;;;;;10.32;8.30;;;;;;;-144.47;100.00;61586.06;5092373;28;20368;-83
2022/05/15 02:44:50;;;;;;;10.23;7.28;;;;;;;-144.47;100.00;61586.06;5092157;28;20496;-82
2022/05/15 02:47:16;;;;;;;14.30;8.77;;;;;;;18.67;100.00;61586.06;5092363;28;20064;-83
2022/05/15 02:52:25;;;;;;;9.98;8.60;;;;;;;187.31;100.00;61586.06;5091825;28;20032;-82
2022/05/15 02:54:51;;;;;;;12.93;8.68;;;;;;;18.67;100.00;61586.06;5091641;28;20035;-83
2022/05/15 02:57:17;;;;;;;9.70;8.20;;;;;;;21.26;100.00;61586.06;5093196;28;20460;-83
2022/05/15 02:59:43;;;;;;;11.60;8.07;;;;;;;187.31;100.00;61586.06;5091614;28;20035;-83
2022/05/15 03:02:08;;;;;;;14.93;8.25;;;;;;;21.26;100.00;61586.06;5091868;28;20024;-83
2022/05/15 03:04:36;;;;;;;9.40;8.02;;;;;;;-144.47;100.00;61586.06;5092998;28;20036;-82
2022/05/15 03:07:05;;;;;;;9.02;7.97;;;;;;;-144.47;100.00;61586.06;5091886;28;20405;-83
2022/05/15 03:09:32;;;;;;;9.80;8.00;;;;;;;-144.47;100.00;61586.06;5092782;28;20120;-82
2022/05/15 03:11:57;;;;;;;11.32;8.43;;;;;;;-144.47;100.00;61586.06;5089324;28;20020;-83
2022/05/15 03:14:22;;;;;;;9.65;8.40;;;;;;;16.73;100.00;61586.06;5093901;28;20380;-82
2022/05/15 03:16:48;;;;;;;11.27;8.07;;;;;;;-144.47;100.00;61586.06;5093732;28;20032;-82
2022/05/15 03:19:14;;;;;;;9.52;8.27;;;;;;;-144.47;100.00;61586.06;5096250;28;20471;-82
2022/05/15 03:21:39;;;;;;;16.45;9.00;;;;;;;-144.47;100.00;61586.06;5096110;28;20036;-82
2022/05/15 03:24:06;;;;;;;12.82;9.18;;;;;;;-144.47;100.00;61586.06;5092065;28;20085;-83
2022/05/15 03:26:35;;;;;;;13.80;9.02;;;;;;;-144.47;100.00;61586.06;5091219;28;20438;-83
2022/05/15 03:29:01;;;;;;;14.07;9.30;;;;;;;16.22;100.00;61586.06;5093007;28;20097;-81
2022/05/15 03:31:26;;;;;;;15.57;9.75;;;;;;;-144.47;100.00;61586.06;5092693;28;20471;-82
2022/05/15 03:33:52;;;;;;;10.18;8.95;;;;;;;-144.47;100.00;61586.06;5092404;28;20032;-82
2022/05/15 03:36:18;;;;;;;11.82;9.02;;;;;;;-144.47;100.00;61586.06;5091868;28;20056;-83
2022/05/15 03:38:45;;;;;;;11.38;9.13;;;;;;;16.08;100.00;61586.06;5090828;28;20027;-82
2022/05/15 03:41:11;;;;;;;11.65;10.15;;;;;;;-144.47;100.00;61586.06;5092262;28;20039;-82
2022/05/15 03:43:37;;;;;;;11.50;9.48;;;;;;;-144.47;100.00;61586.06;5090766;28;20044;-81
2022/05/15 03:46:05;;;;;;;16.38;9.38;;;;;;;-144.47;100.00;61586.06;5093094;28;20039;-82
2022/05/15 03:48:31;;;;;;;13.75;9.77;;;;;;;-144.47;100.00;61586.06;5090716;28;20031;-81
2022/05/15 03:50:57;;;;;;;11.63;9.43;;;;;;;-144.47;100.00;61586.06;5092524;28;20380;-82
2022/05/15 03:53:24;;;;;;;12.23;8.93;;;;;;;-144.47;100.00;61586.06;5090696;28;20032;-82
2022/05/15 03:55:50;;;;;;;11.57;9.40;;;;;;;-144.47;100.00;61586.06;5091573;28;20775;-81
2022/05/15 03:58:16;;;;;;;10.60;9.45;;;;;;;16.13;100.00;61586.06;5090892;28;20107;-82
2022/05/15 04:00:42;;;;;;;10.07;8.85;;;;;;;-144.47;100.00;61586.06;5090606;28;20097;-81
2022/05/15 04:03:08;;;;;;;10.93;9.50;;;;;;;16.01;100.00;61586.06;5091739;28;20103;-82
2022/05/15 04:05:34;;;;;;;12.70;8.85;;;;;;;-144.47;100.00;61586.06;5091658;28;20141;-81
2022/05/15 04:07:59;;;;;;;10.75;9.15;;;;;;;187.31;100.00;61586.06;5091632;28;20054;-81
2022/05/15 04:10:26;;;;;;;9.82;8.43;;;;;;;-144.47;100.00;61586.06;5090494;28;20043;-82
2022/05/15 04:12:52;;;;;;;13.45;9.27;;;;;;;15.92;100.00;81069.44;5089750;28;20043;-82
2022/05/15 04:15:18;;;;;;;12.57;9.80;;;;;;;-144.47;100.00;61586.06;5090265;28;20096;-82
2022/05/15 04:17:51;;;;;;;10.23;8.25;;;;;;;-144.47;100.00;61586.06;5090321;28;20164;-82
2022/05/15 04:20:23;;;;;;;11.00;8.68;;;;;;;-144.47;100.00;61586.06;5090072;28;20120;-82
2022/05/15 04:22:49;;;;;;;9.77;8.45;;;;;;;-144.47;100.00;61586.06;5072965;28;20032;-82
2022/05/15 04:25:14;;;;;;;13.52;8.75;;;;;;;-144.47;100.00;61586.06;5091421;28;20549;-81
2022/05/15 04:27:41;;;;;;;13.57;8.20;;;;;;;16.38;100.00;61586.06;5090925;28;20036;-81
2022/05/15 04:30:08;;;;;;;11.73;8.93;;;;;;;-144.47;100.00;61586.06;5090079;28;20076;-82
2022/05/15 04:32:34;;;;;;;13.32;8.77;;;;;;;-144.47;100.00;61586.06;5089823;28;20028;-83
2022/05/15 04:34:59;;;;;;;14.07;9.60;;;;;;;-144.47;100.00;61586.06;5089638;28;20028;-83
2022/05/15 04:37:25;;;;;;;13.32;9.02;;;;;;;-144.47;100.00;61586.06;5091201;28;20044;-81
2022/05/15 04:39:50;;;;;;;13.35;9.20;;;;;;;-144.47;100.00;61586.06;5090922;28;20086;-82
2022/05/15 04:42:16;;;;;;;10.73;9.43;;;;;;;187.31;100.00;61586.06;5091408;28;20036;-83
2022/05/15 04:44:42;;;;;;;14.77;9.25;;;;;;;-144.47;100.00;61586.06;5090898;28;20539;-81
2022/05/15 04:47:07;;;;;;;16.42;9.77;;;;;;;-144.47;100.00;61586.06;5091255;28;20040;-82
2022/05/15 04:49:33;;;;;;;11.25;10.10;;;;;;;-144.47;100.00;61586.06;5090580;28;20074;-82
2022/05/15 04:51:58;;;;;;;12.73;10.75;;;;;;;-144.47;100.00;61586.06;5091003;28;20476;-82
2022/05/15 04:54:24;;;;;;;16.10;11.15;;;;;;;-144.47;100.00;61586.06;5090939;28;20210;-82
2022/05/15 04:56:49;;;;;;;16.38;10.68;;;;;;;-144.47;100.00;61586.06;5090404;28;20035;-82
2022/05/15 04:59:15;;;;;;;16.77;11.50;;;;;;;15.54;100.00;61586.06;5090736;28;20142;-81
2022/05/15 05:01:41;;;;;;;12.30;10.80;;;;;;;-144.47;100.00;61586.06;5090421;28;20028;-81
2022/05/15 05:04:06;;;;;;;13.98;10.63;;;;;;;15.64;100.00;81090.75;5090391;28;20089;-82
2022/05/15 05:06:32;;;;;;;17.50;11.63;;;;;;;-144.47;100.00;61586.06;5090746;28;20123;-82
2022/05/15 05:08:58;;;;;;;17.10;11.48;;;;;;;-144.47;100.00;61586.06;5086362;28;20048;-82
2022/05/15 05:11:23;;;;;;;15.75;11.35;;;;;;;187.31;100.00;61586.06;5090777;28;20028;-82
2022/05/15 05:13:49;;;;;;;16.17;11.27;;;;;;;-144.47;100.00;61586.06;5090593;28;20550;-82
2022/05/15 05:16:16;;;;;;;15.05;10.95;;;;;;;-144.47;100.00;61586.06;5090802;28;20447;-82
2022/05/15 05:18:41;;;;;;;16.10;11.10;;;;;;;-144.47;100.00;61586.06;5090181;28;20034;-82
2022/05/15 05:21:07;;;;;;;14.82;11.50;;;;;;;-144.47;100.00;61586.06;5090689;28;20462;-81
2022/05/15 05:23:33;;;;;;;18.05;10.88;;;;;;;187.31;100.00;61586.06;5090370;28;20043;-82
2022/05/15 05:25:58;;;;;;;17.85;11.30;;;;;;;18.67;100.00;61586.06;5090656;28;20020;-81
2022/05/15 05:28:24;;;;;;;18.05;11.05;;;;;;;16.96;100.00;61586.06;5090412;28;20043;-82
2022/05/15 05:30:50;;;;;;;14.63;10.75;;;;;;;-144.47;100.00;61586.06;5090306;28;20425;-82
2022/05/15 05:33:16;;;;;;;12.43;11.13;;;;;;;-144.47;100.00;61586.06;5090639;28;20031;-82
2022/05/15 05:35:42;;;;;;;13.10;11.68;;;;;;;-144.47;100.00;61586.06;5072045;28;20032;-82
2022/05/15 05:38:07;;;;;;;16.63;11.70;;;;;;;18.67;100.00;61586.06;5090600;28;20054;-81
2022/05/15 05:40:33;;;;;;;15.93;11.50;;;;;;;18.67;100.00;61586.06;5090108;28;20025;-82
2022/05/15 05:43:00;;;;;;;13.38;11.52;;;;;;;-144.47;100.00;61586.06;5090423;28;20482;-82
2022/05/15 05:45:25;;;;;;;16.05;11.35;;;;;;;-144.47;100.00;61586.06;5090554;28;20452;-82
2022/05/15 05:47:51;;;;;;;14.77;10.25;;;;;;;-144.47;100.00;61586.06;5090125;28;20064;-83
2022/05/15 05:50:20;;;;;;;18.73;10.63;;;;;;;-144.47;100.00;61586.06;5089912;28;20028;-81
2022/05/15 05:52:45;;;;;;;15.27;10.75;;;;;;;-144.47;100.00;61586.06;5090669;28;20032;-82
2022/05/15 05:55:14;;;;;;;13.40;10.52;;;;;;;-144.47;100.00;61586.06;5090450;28;20102;-81
2022/05/15 05:57:42;;;;;;;13.75;10.35;;;;;;;-144.47;100.00;61586.06;5090039;28;20119;-81
2022/05/15 06:00:12;;;;;;;14.02;10.75;;;;;;;-144.47;100.00;61586.06;5093477;28;20146;-81
2022/05/15 06:02:37;;;;;;;10.70;9.38;;;;;;;-144.47;100.00;61586.06;5093804;28;20114;-82
2022/05/15 06:05:03;;;;;;;14.38;10.02;;;;;;;18.67;100.00;61586.06;5094041;28;20508;-82
2022/05/15 06:07:29;;;;;;;14.70;9.63;;;;;;;-144.47;100.00;61586.06;5092955;28;20119;-82
2022/05/15 06:09:55;;;;;;;15.55;10.02;;;;;;;-144.47;100.00;61586.06;5093660;28;20131;-82
2022/05/15 06:12:23;;;;;;;16.15;9.48;;;;;;;-144.47;100.00;61586.06;5093978;28;20329;-82
2022/05/15 06:14:50;;;;;;;11.60;9.63;;;;;;;-144.47;100.00;61586.06;5093710;28;20024;-82
2022/05/15 06:17:21;;;;;;;13.15;9.27;;;;;;;-144.47;100.00;61586.06;5093608;28;20032;-82
2022/05/15 06:19:46;;;;;;;15.68;9.80;;;;;;;18.68;100.00;61586.06;5093240;28;20036;-82
2022/05/15 06:22:12;;;;;;;12.35;11.13;;;;;;;18.68;100.00;61586.06;5094009;28;20368;-82
2022/05/15 06:24:37;;;;;;;16.73;10.88;;;;;;;-144.47;100.00;61586.06;5093690;28;20051;-82
2022/05/15 06:27:03;;;;;;;14.70;9.88;;;;;;;-144.47;100.00;61586.06;5094015;28;20030;-82
2022/05/15 06:29:30;;;;;;;12.75;11.15;;;;;;;-144.47;100.00;61586.06;5094281;28;20044;-82
2022/05/15 06:31:55;;;;;;;13.75;10.35;;;;;;;-144.47;100.00;61586.06;5093859;28;20115;-82
2022/05/15 06:34:21;;;;;;;11.80;9.73;;;;;;;-144.47;100.00;61586.06;5093606;28;20460;-82
2022/05/15 06:36:47;;;;;;;13.98;9.65;;;;;;;-144.47;100.00;61586.06;5093507;28;20476;-83
2022/05/15 06:39:14;;;;;;;14.70;9.48;;;;;;;-144.47;100.00;61586.06;5094498;28;20093;-82
2022/05/15 06:41:39;;;;;;;13.63;9.30;;;;;;;18.72;100.00;61586.06;5092829;28;20024;-82
2022/05/15 06:44:06;;;;;;;14.60;10.50;;;;;;;19.97;100.00;61586.06;5094202;28;20032;-82
2022/05/15 06:46:31;;;;;;;10.15;9.10;;;;;;;187.31;100.00;61586.06;5093668;28;20114;-82
2022/05/15 06:48:57;;;;;;;14.80;10.40;;;;;;;187.31;100.00;61586.06;5093089;28;20111;-82
2022/05/15 06:51:22;;;;;;;11.80;9.90;;;;;;;-144.47;100.00;61586.06;5093512;28;20032;-82
2022/05/15 06:53:48;;;;;;;13.50;9.63;;;;;;;-144.47;100.00;61586.06;5093643;28;20494;-83
2022/05/15 06:58:59;;;;;;;17.88;10.18;;;;;;;-144.47;100.00;61586.06;5089853;28;20036;-83
2022/05/15 07:01:25;;;;;;;12.35;9.73;;;;;;;187.31;100.00;61586.06;5094199;28;20055;-83
2022/05/15 07:03:51;;;;;;;11.50;9.70;;;;;;;19.49;100.00;81547.53;5093314;28;20040;-84
2022/05/15 07:06:17;;;;;;;13.80;10.00;;;;;;;-144.47;100.00;61586.06;5093748;28;20031;-82
2022/05/15 07:08:43;;;;;;;16.13;9.48;;;;;;;-144.47;100.00;61586.06;5093245;28;20153;-82
2022/05/15 07:11:12;;;;;;;16.13;9.27;;;;;;;19.97;100.00;61586.06;5090315;28;20396;-82
2022/05/15 07:13:38;;;;;;;12.70;10.15;;;;;;;187.31;100.00;61586.06;5092897;28;20030;-81
2022/05/15 07:16:04;;;;;;;12.27;9.25;;;;;;;-144.47;100.00;61586.06;5094212;28;20060;-81
2022/05/15 07:18:30;;;;;;;11.73;9.25;;;;;;;-144.47;100.00;61586.06;5100909;28;20069;-83
2022/05/15 07:20:55;;;;;;;12.70;9.32;;;;;;;-144.47;100.00;61586.06;5103870;28;20032;-82
2022/05/15 07:23:22;;;;;;;16.17;10.63;;;;;;;-144.47;100.00;61586.06;5095997;28;20028;-82
2022/05/15 07:25:49;;;;;;;13.18;10.40;;;;;;;-144.47;100.00;61586.06;5092371;28;20028;-82
2022/05/15 07:28:15;;;;;;;16.15;10.13;;;;;;;-144.47;100.00;61586.06;5092967;28;20040;-82
2022/05/15 07:30:40;;;;;;;13.88;11.00;;;;;;;-144.47;100.00;61586.06;5091322;28;20059;-82
2022/05/15 07:33:07;;;;;;;15.68;10.80;;;;;;;-144.47;100.00;61586.06;5092921;28;20035;-82
2022/05/15 07:35:33;;;;;;;14.60;10.98;;;;;;;-144.47;100.00;61586.06;5091155;28;20026;-83
2022/05/15 07:37:58;;;;;;;14.85;11.13;;;;;;;-144.47;100.00;61586.06;5094564;28;20044;-82
2022/05/15 07:40:24;;;;;;;15.98;11.00;;;;;;;-144.47;100.00;61586.06;5098009;28;20040;-82
2022/05/15 07:42:49;;;;;;;15.60;12.65;;;;;;;-144.47;100.00;61586.06;5100937;28;20043;-81
2022/05/15 07:45:16;;;;;;;23.23;16.92;;;;;;;-144.47;100.00;61586.06;5106542;28;20024;-81
2022/05/15 07:47:43;;;;;;;17.73;15.55;;;;;;;-144.47;100.00;61586.06;5106244;28;20052;-81
2022/05/15 07:50:10;;;;;;;18.60;15.38;;;;;;;-144.47;100.00;61586.06;5092455;28;20479;-82
2022/05/15 07:52:37;;;;;;;18.33;15.15;;;;;;;-144.47;100.00;61586.06;5091857;28;20126;-82
2022/05/15 07:55:05;;;;;;;17.98;14.63;;;;;;;-144.47;100.00;61586.06;5092463;28;20028;-82
2022/05/15 07:57:33;;;;;;;21.40;15.73;;;;;;;-144.47;100.00;61586.06;5092034;28;20047;-82
2022/05/15 08:00:00;;;;;;;16.00;14.32;;;;;;;21.17;100.00;61586.06;5088731;28;20020;-82
2022/05/15 08:02:26;;;;;;;20.90;17.35;;;;;;;-144.47;100.00;61586.06;5092166;28;20452;-82
2022/05/15 08:10:19;;;;;;;19.05;15.32;;;;;;;-144.47;100.00;61586.06;5092029;28;20028;-82
2022/05/15 08:12:44;;;;;;;16.65;14.93;;;;;;;-144.47;100.00;61586.06;5091775;28;20097;-82
2022/05/15 08:15:10;;;;;;;22.13;17.27;;;;;;;-144.47;100.00;61586.06;5091819;28;20088;-82
2022/05/15 08:17:35;;;;;;;20.08;17.20;;;;;;;-144.47;100.00;61586.06;5089867;28;20036;-81
2022/05/15 08:25:28;;;;;;;22.02;17.83;;;;;;;-144.47;100.00;61586.06;5087598;28;20027;-82
2022/05/15 08:27:54;;;;;;;20.75;17.83;;;;;;;-144.47;100.00;61586.06;5091172;28;20035;-82
2022/05/15 08:30:20;;;;;;;24.17;16.60;;;;;;;-144.47;100.00;61586.06;5091414;28;20039;-82
2022/05/15 08:32:46;;;;;;;22.30;16.63;;;;;;;-144.47;100.00;61586.06;5090860;28;20032;-82
2022/05/15 08:35:12;;;;;;;19.02;16.30;;;;;;;-144.47;100.00;61586.06;5091127;28;20031;-82
2022/05/15 08:37:39;;;;;;;23.45;16.15;;;;;;;-144.47;100.00;61586.06;5089432;28;20036;-82
2022/05/15 08:40:05;;;;;;;17.52;15.32;;;;;;;-144.47;100.00;61586.06;5090929;28;20035;-82
2022/05/15 08:42:34;;;;;;;18.10;14.00;;;;;;;-144.47;100.00;61586.06;5089728;28;20369;-82
2022/05/15 08:45:01;;;;;;;23.85;15.07;;;;;;;-144.47;100.00;61586.06;5087431;28;20054;-82
2022/05/15 08:47:39;;;;;;;16.35;13.50;;;;;;;-144.47;100.00;61586.06;5091013;28;20032;-82
2022/05/15 08:50:09;;;;;;;19.80;14.90;;;;;;;-144.47;100.00;61586.06;5087662;28;20032;-82
2022/05/15 08:52:42;;;;;;;20.77;15.20;;;;;;;-144.47;100.00;61586.06;5090924;28;20232;-82
2022/05/15 08:55:14;;;;;;;17.88;13.52;;;;;;;-144.47;100.00;61586.06;5090743;28;20062;-82
2022/05/15 08:57:40;;;;;;;16.55;12.20;;;;;;;-144.47;100.00;61586.06;5090617;28;20146;-83
2022/05/15 09:00:10;;;;;;;18.95;10.98;;;;;;;187.31;100.00;61586.06;5089790;28;20113;-82
2022/05/15 09:02:38;;;;;;;;;;;;;;;-144.47;100.00;61586.06;5090979;28;20052;-82
2022/05/15 09:05:04;;;;;;;10.93;9.85;;;;;;;-144.47;100.00;61586.06;5091196;28;20272;-82
2022/05/15 09:07:53;;;;;;;11.68;8.73;;;;;;;-144.47;100.00;61586.06;5091065;28;20108;-82
2022/05/15 09:10:30;;;;;;;10.82;8.63;;;;;;;-144.47;100.00;61586.06;5090059;28;20036;-82
2022/05/15 09:13:24;;;;;;;17.88;12.02;;;;;;;-144.47;100.00;61586.06;5089339;28;20032;-82
2022/05/15 09:15:59;;;;;;;13.18;10.90;;;;;;;-144.47;100.00;61586.06;5091944;28;20074;-82
2022/05/15 09:18:26;;;;;;;10.32;9.13;;;;;;;-144.47;100.00;61586.06;5093155;28;20119;-82
2022/05/15 09:20:52;;;;;;;13.65;9.52;;;;;;;-144.47;100.00;61586.06;5090045;28;20441;-82
2022/05/15 09:23:45;;;;;;;13.57;10.05;;;;;;;62.74;100.00;61586.06;5090822;28;20085;-83
2022/05/15 09:26:19;;;;;;;13.88;9.68;;;;;;;62.74;100.00;61586.06;5088549;28;20039;-83
2022/05/15 09:29:12;;;;;;;11.52;10.18;;;;;;;62.74;100.00;61586.06;5090597;28;20500;-82
2022/05/15 09:31:42;;;;;;;14.63;10.40;;;;;;;62.74;100.00;61586.06;5087618;28;20460;-83
2022/05/15 09:34:30;;;;;;;14.53;11.40;;;;;;;104.25;100.00;61586.06;5089802;28;20395;-83
2022/05/15 09:39:46;;;;;;;15.05;11.27;;;;;;;62.74;100.00;61586.06;5088381;28;20036;-83
2022/05/15 09:44:58;;;;;;;15.80;10.93;;;;;;;62.74;100.00;61586.06;5086330;28;20482;-82
2022/05/15 09:47:37;;;;;;;14.90;10.55;;;;;;;42.00;100.00;61586.06;5090361;28;20024;-83
2022/05/15 09:50:03;;;;;;;11.65;9.90;;;;;;;62.74;100.00;61586.06;5089129;28;20060;-81
2022/05/15 09:52:35;;;;;;;10.68;9.68;;;;;;;104.25;100.00;61586.06;5086392;28;20024;-83
2022/05/15 09:55:21;;;;;;;9.52;8.30;;;;;;;62.74;100.00;61586.06;5085807;28;20036;-83
2022/05/15 09:57:55;;;;;;;12.98;9.43;;;;;;;-144.47;100.00;61586.06;5088310;28;20040;-82
2022/05/15 10:00:22;;;;;;;12.93;9.50;;;;;;;62.74;100.00;61586.06;5090721;28;20421;-82
2022/05/15 10:02:52;;;;;;;10.70;9.27;;;;;;;-144.47;100.00;61586.06;5090113;28;20024;-83
2022/05/15 10:05:29;;;;;;;10.13;8.65;;;;;;;31.63;100.00;61586.06;5090692;28;20024;-83
2022/05/15 10:07:58;;;;;;;9.02;8.10;;;;;;;62.74;100.00;61586.06;5089916;28;20043;-83
2022/05/15 10:10:35;;;;;;;12.38;10.10;;;;;;;-144.47;100.00;61586.06;5090140;28;20024;-83
2022/05/15 10:13:18;;;;;;;15.00;10.52;;;;;;;-144.47;100.00;61586.06;5086214;28;20034;-83
2022/05/15 10:15:48;;;;;;;14.70;10.32;;;;;;;-144.47;100.00;61586.06;5087759;28;20039;-83
2022/05/15 10:18:20;;;;;;;10.48;7.10;;;;;;;-144.47;100.00;61586.06;5090009;28;20039;-81
2022/05/15 10:20:47;;;;;;;17.23;6.60;;;;;;;-144.47;100.00;61586.06;5089250;28;20117;-82
2022/05/15 10:23:23;;;;;;;10.20;7.55;;;;;;;-144.47;100.00;61586.06;5089993;28;20020;-82
2022/05/15 10:25:48;;;;;;;8.13;6.22;;;;;;;-144.47;100.00;61586.06;5089590;28;20089;-84
2022/05/15 10:28:42;;;;;;;11.13;7.25;;;;;;;-144.47;100.00;61586.06;5090191;28;20072;-83
2022/05/15 10:31:28;;;;;;;10.27;7.32;;;;;;;-144.47;100.00;61586.06;5087627;28;20031;-83
2022/05/15 10:34:10;;;;;;;10.55;7.18;;;;;;;-144.47;100.00;61586.06;5089942;28;20111;-83
2022/05/15 10:36:51;;;;;;;11.15;7.78;;;;;;;-144.47;100.00;61586.06;5086435;28;20529;-83
2022/05/15 10:39:48;;;;;;;11.35;6.80;;;;;;;-144.47;100.00;61586.06;5089875;28;20047;-83
2022/05/15 10:42:44;;;;;;;9.88;6.50;;;;;;;-144.47;100.00;61586.06;5083562;28;20028;-82
2022/05/15 10:45:38;;;;;;;10.30;7.13;;;;;;;-144.47;100.00;61586.06;5088841;28;20060;-82
2022/05/15 10:48:32;;;;;;;16.48;6.70;;;;;;;-144.47;100.00;61586.06;5090032;28;20114;-82
2022/05/15 10:51:05;;;;;;;9.23;6.00;;;;;;;24.64;100.00;61586.06;5093551;28;20106;-82
2022/05/15 10:59:53;;;;;;;11.85;7.15;;;;;;;-144.47;100.00;61586.06;5088965;28;20032;-82
2022/05/15 11:02:37;;;;;;;;;;;;;;;-144.47;100.00;61586.06;5090712;28;20036;-83
2022/05/15 11:05:30;;;;;;;8.90;7.20;;;;;;;-144.47;100.00;61586.06;5089913;28;19923;-83
2022/05/15 11:08:13;;;;;;;9.10;8.10;;;;;;;-144.47;100.00;61586.06;5091581;28;20044;-83
2022/05/15 11:10:52;;;;;;;9.75;7.28;;;;;;;-144.47;100.00;61586.06;5086318;28;20040;-83
2022/05/15 11:13:34;;;;;;;10.15;7.10;;;;;;;-144.47;100.00;61586.06;5097742;28;20103;-82
2022/05/15 11:16:36;;;;;;;8.13;7.05;;;;;;;-144.47;100.00;61586.06;5097775;28;20059;-82
2022/05/15 11:19:11;;;;;;;8.75;7.50;;;;;;;-144.47;100.00;61586.06;5091708;28;20098;-82
2022/05/15 11:21:55;;;;;;;8.45;7.22;;;;;;;-144.47;100.00;61586.06;5090017;28;20434;-81
2022/05/15 11:24:35;;;;;;;13.25;7.30;;;;;;;-144.47;100.00;61586.06;5093227;28;20062;-83
2022/05/15 11:27:08;;;;;;;11.10;7.55;;;;;;;-144.47;100.00;61586.06;5089481;28;20032;-83
2022/05/15 11:29:41;;;;;;;13.18;7.25;;;;;;;-144.47;100.00;61586.06;5089863;28;20055;-83
2022/05/15 11:32:31;;;;;;;10.93;8.02;;;;;;;-144.47;100.00;61586.06;5094533;28;20039;-82
2022/05/15 11:35:15;;;;;;;;;;;;;;;-144.47;100.00;61586.06;5098230;28;20047;-82
2022/05/15 11:38:01;;;;;;;10.68;7.18;;;;;;;-144.47;100.00;61586.06;5095013;28;19916;-83
2022/05/15 11:40:47;;;;;;;7.68;6.50;;;;;;;-144.47;100.00;61586.06;5104405;28;20547;-82
2022/05/15 11:43:31;;;;;;;8.00;6.50;;;;;;;-144.47;100.00;61586.06;5104595;28;20036;-83